Time;durP1;ratioP1;P1;durP2;ratioP2;P2;SDS_P1;SDS_P2;PMS_P1;PMS_P2;Temp;Humidity;BMP_temperature;BMP_pressure;BME280_temperature;BME280_humidity;BME280_pressure;Samples;Min_cycle;Max_cycle;Signal;HPM_P1;HPM_P2
2021/08/22 00:00:43;;;;;;;28.65;24.13;;;18.60;99.90;;;;;;5010609;28;20505;-86
2021/08/22 00:03:08;;;;;;;29.02;25.92;;;18.60;99.90;;;;;;5011234;28;20033;-86
2021/08/22 00:05:34;;;;;;;30.63;26.75;;;18.60;99.90;;;;;;5009065;28;20278;-86
2021/08/22 00:07:59;;;;;;;33.17;29.50;;;18.60;99.90;;;;;;5011051;28;20552;-86
2021/08/22 00:10:25;;;;;;;32.53;27.65;;;18.60;99.90;;;;;;5003543;28;20112;-87
2021/08/22 00:12:51;;;;;;;30.75;25.88;;;18.50;99.90;;;;;;5004221;28;20061;-85
2021/08/22 00:15:17;;;;;;;29.85;26.60;;;18.60;99.90;;;;;;5001686;28;20397;-86
2021/08/22 00:17:42;;;;;;;26.90;24.00;;;18.60;99.90;;;;;;5011253;28;20434;-86
2021/08/22 00:20:09;;;;;;;23.42;21.02;;;18.50;99.90;;;;;;5016541;28;20121;-85
2021/08/22 00:22:35;;;;;;;24.05;21.35;;;18.50;99.90;;;;;;5012981;28;20054;-86
2021/08/22 00:25:00;;;;;;;24.02;21.00;;;18.50;99.90;;;;;;5006606;28;20033;-86
2021/08/22 00:27:25;;;;;;;25.23;20.40;;;18.60;99.90;;;;;;5015934;28;20390;-86
2021/08/22 00:29:51;;;;;;;22.80;19.23;;;18.50;99.90;;;;;;5012166;28;20407;-85
2021/08/22 00:32:17;;;;;;;25.77;19.95;;;18.50;99.90;;;;;;5015738;28;20037;-86
2021/08/22 00:34:42;;;;;;;19.80;17.70;;;18.60;99.90;;;;;;5017209;28;20026;-85
2021/08/22 00:37:08;;;;;;;21.77;18.35;;;18.60;99.90;;;;;;5016540;28;20026;-85
2021/08/22 00:39:34;;;;;;;21.70;18.25;;;18.60;99.90;;;;;;5014837;28;20038;-86
2021/08/22 00:42:00;;;;;;;20.45;17.42;;;18.60;99.90;;;;;;5017569;28;20018;-85
2021/08/22 00:44:26;;;;;;;21.75;17.25;;;18.60;99.90;;;;;;5016303;28;20032;-86
2021/08/22 00:46:55;;;;;;;19.40;15.38;;;18.60;99.90;;;;;;5015795;28;20030;-86
2021/08/22 00:49:22;;;;;;;18.67;15.48;;;18.60;99.90;;;;;;5012710;28;20061;-87
2021/08/22 00:51:48;;;;;;;19.90;15.38;;;18.60;99.90;;;;;;5005973;28;20112;-84
2021/08/22 00:54:13;;;;;;;17.00;14.27;;;18.50;99.90;;;;;;5015074;28;20512;-86
2021/08/22 00:56:40;;;;;;;17.42;15.52;;;18.50;99.90;;;;;;5014636;28;20026;-86
2021/08/22 00:59:07;;;;;;;18.92;15.50;;;18.50;99.90;;;;;;5009914;28;20034;-86
2021/08/22 01:01:33;;;;;;;18.67;15.98;;;18.50;99.90;;;;;;4997625;28;20478;-85
2021/08/22 01:04:13;;;;;;;18.77;14.48;;;18.50;99.90;;;;;;5014918;28;20061;-86
2021/08/22 01:06:46;;;;;;;16.38;14.68;;;18.50;99.90;;;;;;5015388;28;20037;-86
2021/08/22 01:09:20;;;;;;;20.55;16.63;;;18.40;99.90;;;;;;5032226;28;20064;-86
2021/08/22 01:11:46;;;;;;;16.75;13.73;;;18.40;99.90;;;;;;5014736;28;20018;-85
2021/08/22 01:14:16;;;;;;;16.70;14.52;;;18.40;99.90;;;;;;5013627;28;20037;-85
2021/08/22 01:16:46;;;;;;;17.90;15.10;;;18.40;99.90;;;;;;5016568;28;20033;-85
2021/08/22 01:19:38;;;;;;;18.50;14.63;;;18.30;99.90;;;;;;5017950;28;20045;-86
2021/08/22 01:22:06;;;;;;;22.13;15.18;;;18.40;99.90;;;;;;4974247;28;20285;-86
2021/08/22 01:24:33;;;;;;;15.75;13.05;;;18.30;99.90;;;;;;5011648;28;20524;-85
2021/08/22 01:27:01;;;;;;;16.80;13.90;;;18.30;99.90;;;;;;5018293;28;20029;-85
2021/08/22 01:29:37;;;;;;;18.48;13.70;;;18.30;99.90;;;;;;5014991;28;20489;-86
2021/08/22 01:32:02;;;;;;;19.98;15.15;;;18.20;99.90;;;;;;5017734;28;20040;-86
2021/08/22 01:34:29;;;;;;;16.02;14.30;;;18.20;99.90;;;;;;5018890;28;20424;-86
2021/08/22 01:36:57;;;;;;;18.40;13.93;;;18.20;99.90;;;;;;5018462;28;20512;-86
2021/08/22 01:39:23;;;;;;;17.70;13.77;;;18.20;99.90;;;;;;5016403;28;20477;-86
2021/08/22 01:41:49;;;;;;;18.02;15.55;;;18.20;99.90;;;;;;5017089;28;20037;-86
2021/08/22 01:44:19;;;;;;;17.42;14.48;;;18.20;99.90;;;;;;5017357;28;20040;-86
2021/08/22 01:46:46;;;;;;;19.52;14.50;;;18.10;99.90;;;;;;5015994;28;20026;-86
2021/08/22 01:49:13;;;;;;;17.00;14.07;;;18.10;99.90;;;;;;5018294;28;20040;-85
2021/08/22 01:51:40;;;;;;;16.50;12.10;;;18.10;99.90;;;;;;5018495;28;20033;-86
2021/08/22 01:54:09;;;;;;;21.08;12.80;;;18.00;99.90;;;;;;5035920;28;20037;-87
2021/08/22 01:56:39;;;;;;;14.93;12.48;;;18.00;99.90;;;;;;5015178;28;20032;-86
2021/08/22 01:59:05;;;;;;;16.90;13.20;;;17.90;99.90;;;;;;5012701;28;20074;-86
2021/08/22 02:01:31;;;;;;;13.88;11.52;;;17.90;99.90;;;;;;5015165;28;20068;-86
2021/08/22 02:04:06;;;;;;;15.20;12.20;;;17.90;99.90;;;;;;5015745;28;20033;-87
2021/08/22 02:06:58;;;;;;;13.98;11.90;;;17.80;99.90;;;;;;5016112;28;20025;-86
2021/08/22 02:09:31;;;;;;;15.40;11.57;;;17.80;99.90;;;;;;5015895;28;20389;-85
2021/08/22 02:12:01;;;;;;;15.57;12.48;;;17.70;99.90;;;;;;5015937;28;20060;-86
2021/08/22 02:14:30;;;;;;;15.35;12.55;;;17.60;99.90;;;;;;5015247;28;20064;-85
2021/08/22 02:16:56;;;;;;;18.77;14.48;;;17.60;99.90;;;;;;5020534;28;20157;-85
2021/08/22 02:19:24;;;;;;;18.02;14.63;;;17.60;99.90;;;;;;5015871;28;20025;-86
2021/08/22 02:21:50;;;;;;;20.25;14.30;;;17.70;99.90;;;;;;5017502;28;20026;-85
2021/08/22 02:24:17;;;;;;;20.85;17.30;;;17.60;99.90;;;;;;5016496;28;20025;-85
2021/08/22 02:26:42;;;;;;;22.60;19.42;;;17.60;99.90;;;;;;5034424;28;20036;-85
2021/08/22 02:29:08;;;;;;;26.83;21.45;;;17.70;99.90;;;;;;5015208;28;20029;-85
2021/08/22 02:31:34;;;;;;;26.20;20.85;;;17.70;99.90;;;;;;5033298;28;20036;-85
2021/08/22 02:34:00;;;;;;;23.85;20.20;;;17.70;99.90;;;;;;5017734;28;20037;-85
2021/08/22 02:36:27;;;;;;;30.20;23.58;;;17.70;99.90;;;;;;5013721;28;20483;-85
2021/08/22 02:38:53;;;;;;;35.95;27.10;;;17.70;99.90;;;;;;5006968;28;20040;-85
2021/08/22 02:41:19;;;;;;;35.95;25.70;;;17.60;99.90;;;;;;5014775;28;20108;-85
2021/08/22 02:43:45;;;;;;;34.80;26.25;;;17.60;99.90;;;;;;5016349;28;20076;-85
2021/08/22 02:46:10;;;;;;;34.75;26.58;;;17.50;99.90;;;;;;5015110;28;20023;-84
2021/08/22 02:48:36;;;;;;;37.88;28.05;;;17.50;99.90;;;;;;5014904;28;20091;-85
2021/08/22 02:51:02;;;;;;;38.08;27.42;;;17.40;99.90;;;;;;5015873;28;20048;-85
2021/08/22 02:53:28;;;;;;;37.58;27.60;;;17.40;99.90;;;;;;5013569;28;20021;-85
2021/08/22 02:55:54;;;;;;;37.95;27.90;;;17.40;99.90;;;;;;5016630;28;20055;-85
2021/08/22 02:58:20;;;;;;;40.25;28.35;;;17.40;99.90;;;;;;5016815;28;20116;-85
2021/08/22 03:00:45;;;;;;;45.67;30.27;;;17.40;99.90;;;;;;5017216;28;20036;-85
2021/08/22 03:03:11;;;;;;;40.30;28.38;;;17.40;99.90;;;;;;5016153;28;20036;-85
2021/08/22 03:05:36;;;;;;;39.70;28.52;;;17.40;99.90;;;;;;5032771;28;20029;-85
2021/08/22 03:08:03;;;;;;;49.03;32.33;;;17.30;99.90;;;;;;5034044;28;20040;-85
2021/08/22 03:10:28;;;;;;;45.08;30.45;;;17.30;99.90;;;;;;5032760;28;20481;-85
2021/08/22 03:12:54;;;;;;;47.60;31.98;;;17.30;99.90;;;;;;5031685;28;20040;-85
2021/08/22 03:15:19;;;;;;;49.40;33.47;;;17.30;99.90;;;;;;5013574;28;20078;-85
2021/08/22 03:17:45;;;;;;;56.92;37.15;;;17.30;99.90;;;;;;5013366;28;20085;-85
2021/08/22 03:20:10;;;;;;;54.53;35.42;;;17.40;99.90;;;;;;5015140;28;20029;-86
2021/08/22 03:22:41;;;;;;;53.95;37.22;;;17.40;99.90;;;;;;5013907;28;20052;-85
2021/08/22 03:25:08;;;;;;;57.00;37.60;;;17.50;99.90;;;;;;5011660;28;20116;-86
2021/08/22 03:27:33;;;;;;;49.72;34.15;;;17.50;99.90;;;;;;5015854;28;20026;-86
2021/08/22 03:29:59;;;;;;;53.72;37.17;;;17.50;99.90;;;;;;5015879;28;20032;-85
2021/08/22 03:32:25;;;;;;;56.28;36.60;;;17.50;99.90;;;;;;5014727;28;20038;-86
2021/08/22 03:34:50;;;;;;;52.75;37.05;;;17.60;99.90;;;;;;5014579;28;20033;-85
2021/08/22 03:37:15;;;;;;;57.53;36.67;;;17.60;99.90;;;;;;5008434;28;20025;-85
2021/08/22 03:39:41;;;;;;;59.22;38.90;;;17.60;99.90;;;;;;5032678;28;20031;-85
2021/08/22 03:42:06;;;;;;;59.00;38.28;;;17.60;99.90;;;;;;5015654;28;20216;-86
2021/08/22 03:44:32;;;;;;;58.88;39.13;;;17.60;99.90;;;;;;5012506;28;20474;-85
2021/08/22 03:46:57;;;;;;;58.97;38.28;;;17.60;99.90;;;;;;5030991;28;20036;-85
2021/08/22 03:49:23;;;;;;;56.30;38.80;;;17.60;99.90;;;;;;5007155;28;20028;-85
2021/08/22 03:51:48;;;;;;;57.58;39.60;;;17.60;99.90;;;;;;5009862;28;20037;-85
2021/08/22 03:54:14;;;;;;;59.13;38.33;;;17.60;99.90;;;;;;5015065;28;20029;-86
2021/08/22 03:56:40;;;;;;;64.38;41.15;;;17.50;99.90;;;;;;5014209;28;20285;-86
2021/08/22 03:59:09;;;;;;;68.78;44.25;;;17.50;99.90;;;;;;5013738;28;20052;-86
2021/08/22 04:01:35;;;;;;;61.70;41.40;;;17.50;99.90;;;;;;5013612;28;20028;-86
2021/08/22 04:04:01;;;;;;;58.38;38.75;;;17.40;99.90;;;;;;5013332;28;20025;-85
2021/08/22 04:06:27;;;;;;;55.97;39.58;;;17.50;99.90;;;;;;5031419;28;20025;-86
2021/08/22 04:08:53;;;;;;;63.95;41.38;;;17.40;99.90;;;;;;5013944;28;20033;-86
2021/08/22 04:11:18;;;;;;;53.33;37.53;;;17.40;99.90;;;;;;5013092;28;20390;-86
2021/08/22 04:13:44;;;;;;;52.33;35.67;;;17.30;99.90;;;;;;5013832;28;20037;-85
2021/08/22 04:16:10;;;;;;;62.67;39.08;;;17.30;99.90;;;;;;5014943;28;20500;-85
2021/08/22 04:18:35;;;;;;;59.25;39.28;;;17.20;99.90;;;;;;5015445;28;20128;-86
2021/08/22 04:21:01;;;;;;;65.55;41.50;;;17.20;99.90;;;;;;5033203;28;20040;-86
2021/08/22 04:23:26;;;;;;;65.93;40.60;;;17.10;99.90;;;;;;5015459;28;20478;-86
2021/08/22 04:25:53;;;;;;;64.20;42.17;;;17.10;99.90;;;;;;5013758;28;20116;-86
2021/08/22 04:28:19;;;;;;;63.65;41.45;;;17.10;99.90;;;;;;5013740;28;20031;-85
2021/08/22 04:30:45;;;;;;;65.45;42.92;;;17.10;99.90;;;;;;5013785;28;20057;-85
2021/08/22 04:33:10;;;;;;;65.07;40.55;;;17.10;99.90;;;;;;5016418;28;20033;-86
2021/08/22 04:35:36;;;;;;;73.80;42.58;;;17.10;99.90;;;;;;5015472;28;20422;-86
2021/08/22 04:38:01;;;;;;;71.35;40.85;;;17.10;99.90;;;;;;5015342;28;20087;-86
2021/08/22 04:40:28;;;;;;;76.93;45.42;;;17.10;99.90;;;;;;5015706;28;20030;-87
2021/08/22 04:42:54;;;;;;;76.25;43.92;;;17.10;99.90;;;;;;5016014;28;20112;-85
2021/08/22 04:45:19;;;;;;;78.32;44.58;;;17.10;99.90;;;;;;5015605;28;20433;-85
2021/08/22 04:47:45;;;;;;;74.57;42.50;;;17.00;99.90;;;;;;5014656;28;20033;-85
2021/08/22 04:50:10;;;;;;;78.28;44.03;;;17.00;99.90;;;;;;5014246;28;20060;-85
2021/08/22 04:52:36;;;;;;;78.18;44.55;;;17.10;99.90;;;;;;5016210;28;20040;-85
2021/08/22 04:55:04;;;;;;;76.28;44.33;;;17.10;99.90;;;;;;4999901;28;20030;-85
2021/08/22 04:57:30;;;;;;;82.95;46.65;;;17.10;99.90;;;;;;5034032;28;20492;-85
2021/08/22 04:59:56;;;;;;;80.78;45.28;;;17.10;99.90;;;;;;5016209;28;20017;-85
2021/08/22 05:02:21;;;;;;;80.20;44.42;;;17.20;99.90;;;;;;5000348;28;20084;-85
2021/08/22 05:04:47;;;;;;;89.65;47.20;;;17.20;99.90;;;;;;5015022;28;20021;-85
2021/08/22 05:07:12;;;;;;;75.38;42.78;;;17.20;99.90;;;;;;5018462;28;20397;-84
2021/08/22 05:09:38;;;;;;;79.10;44.08;;;17.30;99.90;;;;;;5018259;28;20067;-86
2021/08/22 05:12:04;;;;;;;75.35;42.15;;;17.30;99.90;;;;;;5017028;28;20120;-85
2021/08/22 05:14:33;;;;;;;83.05;43.95;;;17.30;99.90;;;;;;5015040;28;20108;-85
2021/08/22 05:17:00;;;;;;;80.55;44.03;;;17.40;99.90;;;;;;5013466;28;20126;-85
2021/08/22 05:19:25;;;;;;;80.90;43.08;;;17.40;99.90;;;;;;5014958;28;20493;-86
2021/08/22 05:21:51;;;;;;;87.32;45.30;;;17.40;99.90;;;;;;5002714;28;20121;-85
2021/08/22 05:24:16;;;;;;;82.38;42.72;;;17.50;99.90;;;;;;4997708;28;20079;-86
2021/08/22 05:26:42;;;;;;;79.18;44.10;;;17.50;99.90;;;;;;5011040;28;20381;-85
2021/08/22 05:29:07;;;;;;;77.38;41.50;;;17.50;99.90;;;;;;5018906;28;20029;-85
2021/08/22 05:31:33;;;;;;;79.90;42.47;;;17.60;99.90;;;;;;5016106;28;20022;-85
2021/08/22 05:33:58;;;;;;;76.70;41.80;;;17.60;99.90;;;;;;5015775;28;20107;-86
2021/08/22 05:36:24;;;;;;;71.95;40.17;;;17.60;99.90;;;;;;5017993;28;20021;-85
2021/08/22 05:38:52;;;;;;;68.47;39.70;;;17.60;99.90;;;;;;5018103;28;20099;-85
2021/08/22 05:41:18;;;;;;;66.97;37.63;;;17.60;99.90;;;;;;5017478;28;20025;-86
2021/08/22 05:43:44;;;;;;;71.38;40.88;;;17.60;99.90;;;;;;5016316;28;20477;-85
2021/08/22 05:46:10;;;;;;;63.88;38.72;;;17.70;99.90;;;;;;5017811;28;20026;-85
2021/08/22 05:48:36;;;;;;;68.97;37.67;;;17.70;99.90;;;;;;5017845;28;20387;-86
2021/08/22 05:51:01;;;;;;;66.38;37.75;;;17.70;99.90;;;;;;5014148;28;20022;-86
2021/08/22 05:53:41;;;;;;;63.08;36.33;;;17.70;99.90;;;;;;5019492;28;20026;-86
2021/08/22 05:56:07;;;;;;;65.03;38.20;;;17.80;99.90;;;;;;5018012;28;20017;-86
2021/08/22 05:58:33;;;;;;;67.00;38.60;;;17.70;99.90;;;;;;5006355;28;20455;-85
2021/08/22 06:00:58;;;;;;;62.17;36.88;;;17.80;99.90;;;;;;5024237;28;20029;-86
2021/08/22 06:03:24;;;;;;;63.95;36.97;;;17.80;99.90;;;;;;5016474;28;20021;-85
2021/08/22 06:05:50;;;;;;;65.53;39.50;;;17.80;99.90;;;;;;5037095;28;20025;-86
2021/08/22 06:08:16;;;;;;;64.53;39.50;;;17.80;99.90;;;;;;5015898;28;20033;-86
2021/08/22 06:10:42;;;;;;;66.63;39.22;;;17.80;99.90;;;;;;5013892;28;20030;-85
2021/08/22 06:13:07;;;;;;;65.90;38.47;;;17.80;99.90;;;;;;5011639;28;20021;-86
2021/08/22 06:15:33;;;;;;;62.60;38.75;;;17.80;99.90;;;;;;5027990;28;20026;-85
2021/08/22 06:17:58;;;;;;;65.75;39.00;;;17.80;99.90;;;;;;5017128;28;20132;-86
2021/08/22 06:20:24;;;;;;;69.00;40.08;;;17.70;99.90;;;;;;5017275;28;20028;-85
2021/08/22 06:22:49;;;;;;;66.97;40.55;;;17.80;99.90;;;;;;5016058;28;20065;-85
2021/08/22 06:25:15;;;;;;;62.45;38.20;;;17.80;99.90;;;;;;4998347;28;20033;-86
2021/08/22 06:27:40;;;;;;;63.40;39.25;;;17.70;99.90;;;;;;5035294;28;20048;-85
2021/08/22 06:30:06;;;;;;;60.28;38.63;;;17.70;99.90;;;;;;5010568;28;20076;-86
2021/08/22 06:32:33;;;;;;;56.60;37.55;;;17.70;99.90;;;;;;5028207;28;20029;-86
2021/08/22 06:34:58;;;;;;;59.00;37.45;;;17.80;99.90;;;;;;5013802;28;20032;-84
2021/08/22 06:37:24;;;;;;;54.70;35.83;;;17.80;99.90;;;;;;5009663;28;20029;-85
2021/08/22 06:39:49;;;;;;;51.42;35.08;;;17.80;99.90;;;;;;5026328;28;20037;-85
2021/08/22 06:42:15;;;;;;;57.45;36.88;;;17.80;99.90;;;;;;5013709;28;20021;-85
2021/08/22 06:44:42;;;;;;;50.95;35.58;;;17.80;99.90;;;;;;5031045;28;20407;-84
2021/08/22 06:47:09;;;;;;;50.67;34.83;;;17.90;99.90;;;;;;5032797;28;20013;-85
2021/08/22 06:49:35;;;;;;;48.28;33.25;;;17.90;99.90;;;;;;5013715;28;20040;-85
2021/08/22 06:52:01;;;;;;;48.95;32.28;;;17.90;99.90;;;;;;5014964;28;20021;-85
2021/08/22 06:54:26;;;;;;;49.08;31.98;;;18.00;99.90;;;;;;5015098;28;20056;-85
2021/08/22 06:56:55;;;;;;;48.53;32.15;;;18.00;99.90;;;;;;5030094;28;20068;-84
2021/08/22 06:59:24;;;;;;;48.45;32.20;;;18.10;99.90;;;;;;5013595;28;20099;-85
2021/08/22 07:01:50;;;;;;;44.50;30.70;;;18.10;99.90;;;;;;5013622;28;20068;-85
2021/08/22 07:04:16;;;;;;;40.65;29.70;;;18.20;99.90;;;;;;5014401;28;20029;-85
2021/08/22 07:06:42;;;;;;;43.53;29.98;;;18.20;99.90;;;;;;5010997;28;20026;-85
2021/08/22 07:09:07;;;;;;;44.25;30.95;;;18.20;99.90;;;;;;5016884;28;20490;-84
2021/08/22 07:11:33;;;;;;;42.63;31.00;;;18.30;99.90;;;;;;5014394;28;20064;-84
2021/08/22 07:13:58;;;;;;;42.05;30.63;;;18.30;99.90;;;;;;5015500;28;20022;-84
2021/08/22 07:16:28;;;;;;;51.13;34.63;;;18.30;99.90;;;;;;5008587;28;20210;-84
2021/08/22 07:18:54;;;;;;;44.45;31.92;;;18.40;99.90;;;;;;5013599;28;20347;-84
2021/08/22 07:21:20;;;;;;;47.20;35.17;;;18.40;99.90;;;;;;5015029;28;20052;-84
2021/08/22 07:23:46;;;;;;;50.58;33.85;;;18.40;99.90;;;;;;5015685;28;20048;-84
2021/08/22 07:26:11;;;;;;;47.60;35.88;;;18.40;99.90;;;;;;5033609;28;20029;-84
2021/08/22 07:28:38;;;;;;;49.80;36.75;;;18.40;99.90;;;;;;5015433;28;20044;-84
2021/08/22 07:31:06;;;;;;;49.15;35.45;;;18.40;99.90;;;;;;5031917;28;20072;-84
2021/08/22 07:33:35;;;;;;;44.72;35.20;;;18.40;99.90;;;;;;5016084;28;20124;-85
2021/08/22 07:36:02;;;;;;;47.08;36.35;;;18.50;99.90;;;;;;5014421;28;20096;-85
2021/08/22 07:38:27;;;;;;;47.40;36.72;;;18.40;99.90;;;;;;5015083;28;20040;-84
2021/08/22 07:40:53;;;;;;;48.40;36.95;;;18.40;99.90;;;;;;5015120;28;20017;-84
2021/08/22 07:43:19;;;;;;;42.90;34.55;;;18.50;99.90;;;;;;5032106;28;20057;-84
2021/08/22 07:45:44;;;;;;;43.03;34.22;;;18.50;99.90;;;;;;5014656;28;20072;-84
2021/08/22 07:48:10;;;;;;;47.47;34.53;;;18.60;99.90;;;;;;5014499;28;20029;-83
2021/08/22 07:50:36;;;;;;;42.72;32.08;;;18.70;99.90;;;;;;5013908;28;20113;-84
2021/08/22 07:53:01;;;;;;;41.42;31.38;;;18.80;99.90;;;;;;5015452;28;20088;-86
2021/08/22 07:55:27;;;;;;;38.42;30.20;;;18.90;99.90;;;;;;5014835;28;20030;-85
2021/08/22 07:57:53;;;;;;;39.97;29.98;;;18.90;99.90;;;;;;5027794;28;20132;-85
2021/08/22 08:00:19;;;;;;;37.40;28.13;;;19.00;99.90;;;;;;5006894;28;20025;-85
2021/08/22 08:02:45;;;;;;;37.88;28.20;;;19.10;99.90;;;;;;5010067;28;20026;-85
2021/08/22 08:05:11;;;;;;;35.75;28.48;;;19.20;99.90;;;;;;5009206;28;20478;-85
2021/08/22 08:07:37;;;;;;;31.48;25.40;;;19.20;99.90;;;;;;5009806;28;20033;-85
2021/08/22 08:10:03;;;;;;;31.70;24.98;;;19.30;99.90;;;;;;5026904;28;20495;-84
2021/08/22 08:12:28;;;;;;;33.40;25.15;;;19.40;99.90;;;;;;5026597;28;20070;-85
2021/08/22 08:14:56;;;;;;;30.92;24.08;;;19.40;99.90;;;;;;5006962;28;20017;-85
2021/08/22 08:17:22;;;;;;;35.67;25.83;;;19.50;99.90;;;;;;5007303;28;20057;-83
2021/08/22 08:19:47;;;;;;;30.23;25.33;;;19.50;99.90;;;;;;5027059;28;20516;-84
2021/08/22 08:22:13;;;;;;;29.40;26.15;;;19.50;99.90;;;;;;5005792;28;20034;-84
2021/08/22 08:24:38;;;;;;;32.78;26.17;;;19.50;99.90;;;;;;5010152;28;20029;-85
2021/08/22 08:27:04;;;;;;;30.70;25.45;;;19.60;99.90;;;;;;5007813;28;20025;-85
2021/08/22 08:29:30;;;;;;;31.85;27.50;;;19.60;99.90;;;;;;5029474;28;20029;-85
2021/08/22 08:31:55;;;;;;;32.50;27.17;;;19.60;99.90;;;;;;5013281;28;20033;-85
2021/08/22 08:34:21;;;;;;;32.58;27.77;;;19.50;99.90;;;;;;5012051;28;20080;-85
2021/08/22 08:36:46;;;;;;;31.77;27.05;;;19.50;99.90;;;;;;5010910;28;20060;-85
2021/08/22 08:39:12;;;;;;;32.50;26.65;;;19.50;99.90;;;;;;5012863;28;20565;-82
2021/08/22 08:41:37;;;;;;;31.60;27.70;;;19.60;99.90;;;;;;5017133;28;20025;-85
2021/08/22 08:44:04;;;;;;;31.45;28.00;;;19.60;99.90;;;;;;5015963;28;20036;-84
2021/08/22 08:46:46;;;;;;;31.05;27.48;;;19.70;99.90;;;;;;5007207;28;20371;-84
2021/08/22 08:49:26;;;;;;;;;;;19.80;99.90;;;;;;5013842;28;20079;-84
2021/08/22 08:52:01;;;;;;;30.98;26.05;;;19.80;99.90;;;;;;5016127;28;20024;-85
2021/08/22 08:54:30;;;;;;;29.38;26.20;;;19.90;99.90;;;;;;5017275;28;20056;-84
2021/08/22 08:57:00;;;;;;;29.77;26.42;;;19.90;99.90;;;;;;5018262;28;20033;-84
2021/08/22 08:59:25;;;;;;;29.75;26.50;;;19.90;99.90;;;;;;5015670;28;20043;-84
2021/08/22 09:01:52;;;;;;;31.83;27.55;;;19.80;99.90;;;;;;5014720;28;20028;-85
2021/08/22 09:04:26;;;;;;;31.50;27.25;;;19.80;99.90;;;;;;5007649;28;21774;-85
2021/08/22 09:07:26;;;;;;;33.28;26.50;;;19.80;99.90;;;;;;5012275;28;20038;-85
2021/08/22 09:10:29;;;;;;;29.75;26.27;;;19.90;99.90;;;;;;5010005;28;20057;-85
2021/08/22 09:13:13;;;;;;;26.02;23.25;;;19.90;99.90;;;;;;5028814;28;20171;-85
2021/08/22 09:16:14;;;;;;;27.67;24.77;;;20.00;99.90;;;;;;5010837;28;20036;-85
2021/08/22 09:19:02;;;;;;;25.45;21.20;;;19.90;99.90;;;;;;5012338;28;20457;-84
2021/08/22 09:21:33;;;;;;;22.23;19.83;;;20.00;99.90;;;;;;5002932;28;20040;-84
2021/08/22 09:24:18;;;;;;;22.27;19.30;;;20.10;99.90;;;;;;5034890;28;20021;-84
2021/08/22 09:27:21;;;;;;;19.70;16.77;;;20.20;99.70;;;;;;5014875;28;20354;-84
2021/08/22 09:30:24;;;;;;;15.57;13.98;;;20.20;99.50;;;;;;5011251;28;20026;-85
2021/08/22 09:33:27;;;;;;;16.55;14.85;;;20.10;99.40;;;;;;5008996;28;20025;-84
2021/08/22 09:36:24;;;;;;;18.55;14.82;;;19.90;99.20;;;;;;5031085;28;20033;-84
2021/08/22 09:39:26;;;;;;;17.83;16.08;;;19.80;99.40;;;;;;5009978;28;20048;-84
2021/08/22 09:42:04;;;;;;;;;;;19.60;99.60;;;;;;5018717;28;20079;-84
2021/08/22 09:45:01;;;;;;;19.38;16.48;;;19.40;99.90;;;;;;5016807;28;19916;-84
2021/08/22 09:48:10;;;;;;;19.08;16.98;;;19.40;99.90;;;;;;5016522;28;20025;-84
2021/08/22 09:51:07;;;;;;;19.25;16.67;;;19.60;99.90;;;;;;5007054;28;20036;-85
2021/08/22 09:54:10;;;;;;;18.63;16.70;;;19.80;99.90;;;;;;5012487;28;20030;-85
2021/08/22 09:57:06;;;;;;;14.20;12.38;;;20.00;99.90;;;;;;5010764;28;20579;-85
2021/08/22 09:59:43;;;;;;;11.57;10.25;;;20.10;99.90;;;;;;5014583;28;20125;-85
2021/08/22 10:02:31;;;;;;;11.45;10.27;;;20.10;99.90;;;;;;5008718;28;20454;-85
2021/08/22 10:05:24;;;;;;;12.15;9.98;;;20.10;99.90;;;;;;5014544;28;20018;-84
2021/08/22 10:08:07;;;;;;;12.88;9.95;;;20.10;99.80;;;;;;5027893;28;20104;-84
2021/08/22 10:10:37;;;;;;;14.43;10.63;;;20.10;99.80;;;;;;5029696;28;20034;-84
2021/08/22 10:13:03;;;;;;;12.90;11.27;;;20.20;99.90;;;;;;5016760;28;20045;-83
2021/08/22 10:15:29;;;;;;;13.27;11.40;;;20.40;99.60;;;;;;5015006;28;20445;-83
2021/08/22 10:17:55;;;;;;;12.82;11.52;;;20.50;99.40;;;;;;5012428;28;20521;-84
2021/08/22 10:20:20;;;;;;;15.70;11.30;;;20.60;99.40;;;;;;5014909;28;20030;-83
2021/08/22 10:22:51;;;;;;;13.98;12.48;;;20.70;99.00;;;;;;5016330;28;20452;-83
2021/08/22 10:25:47;;;;;;;14.10;12.70;;;20.80;98.50;;;;;;5014662;28;20768;-83
2021/08/22 10:28:13;;;;;;;14.38;12.98;;;20.80;98.50;;;;;;5016512;28;20021;-84
2021/08/22 10:30:42;;;;;;;17.55;14.82;;;20.80;98.40;;;;;;5034370;28;20386;-83
2021/08/22 10:33:09;;;;;;;18.05;15.60;;;20.80;98.10;;;;;;5013180;28;20017;-83
2021/08/22 10:35:34;;;;;;;18.60;16.77;;;20.80;98.10;;;;;;5015808;28;20033;-84
2021/08/22 10:38:20;;;;;;;20.10;18.08;;;20.80;98.00;;;;;;5014968;28;20029;-84
2021/08/22 10:40:47;;;;;;;18.42;16.55;;;20.80;97.80;;;;;;5029564;28;20029;-85
2021/08/22 10:43:13;;;;;;;17.98;16.17;;;20.80;97.30;;;;;;5005753;28;20053;-82
2021/08/22 10:45:50;;;;;;;16.95;15.25;;;20.80;97.50;;;;;;5019584;28;20422;-83
2021/08/22 10:48:21;;;;;;;18.58;16.65;;;20.90;97.60;;;;;;5034544;28;20025;-84
2021/08/22 10:50:59;;;;;;;17.30;14.57;;;20.90;97.30;;;;;;5034725;28;20363;-84
2021/08/22 10:53:36;;;;;;;16.05;14.55;;;20.90;97.00;;;;;;5014841;28;20700;-84
2021/08/22 10:56:21;;;;;;;16.38;14.60;;;21.00;96.80;;;;;;5010059;28;20484;-85
2021/08/22 10:58:55;;;;;;;13.70;12.32;;;21.00;96.80;;;;;;5013111;28;20033;-84
2021/08/22 11:01:21;;;;;;;15.02;13.55;;;21.00;97.00;;;;;;5003729;28;20037;-84
2021/08/22 11:04:11;;;;;;;15.60;14.00;;;21.10;96.60;;;;;;5017746;28;20026;-84
2021/08/22 11:06:56;;;;;;;15.50;13.05;;;21.20;96.60;;;;;;5010953;28;20033;-84
2021/08/22 11:09:40;;;;;;;15.48;13.98;;;21.30;96.40;;;;;;5001337;28;20053;-85
2021/08/22 11:12:27;;;;;;;14.25;12.75;;;21.40;96.00;;;;;;4998488;28;20030;-83
2021/08/22 11:14:54;;;;;;;14.88;13.25;;;21.50;95.80;;;;;;4999847;28;20060;-83
2021/08/22 11:17:19;;;;;;;15.48;13.27;;;21.40;95.30;;;;;;4993769;28;20150;-84
2021/08/22 11:19:45;;;;;;;13.68;11.93;;;21.50;95.40;;;;;;5005981;28;20157;-83
2021/08/22 11:22:26;;;;;;;14.50;12.57;;;21.50;95.00;;;;;;5012276;28;20029;-84
2021/08/22 11:24:53;;;;;;;15.07;13.10;;;21.60;94.70;;;;;;5014960;28;20482;-84
2021/08/22 11:27:20;;;;;;;15.63;12.38;;;21.60;95.00;;;;;;5009543;28;20292;-83
2021/08/22 11:29:54;;;;;;;15.60;12.70;;;21.70;94.40;;;;;;5011859;28;20025;-83
2021/08/22 11:32:20;;;;;;;13.70;11.93;;;21.80;94.60;;;;;;5008842;28;20478;-83
2021/08/22 11:34:45;;;;;;;13.60;12.18;;;22.00;94.30;;;;;;5011448;28;20018;-83
2021/08/22 11:37:15;;;;;;;12.25;10.40;;;22.10;93.70;;;;;;5014268;28;20030;-83
2021/08/22 11:39:41;;;;;;;12.25;10.48;;;22.20;93.50;;;;;;5015381;28;20109;-83
2021/08/22 11:42:08;;;;;;;12.18;10.70;;;22.20;93.60;;;;;;5013189;28;20045;-83
2021/08/22 11:44:33;;;;;;;13.95;11.82;;;22.20;93.00;;;;;;5012976;28;20057;-83
2021/08/22 11:46:59;;;;;;;13.35;11.57;;;22.20;92.90;;;;;;5014482;28;20486;-83
2021/08/22 11:49:25;;;;;;;11.90;10.70;;;22.20;93.10;;;;;;5012654;28;20121;-84
2021/08/22 11:51:51;;;;;;;10.88;9.80;;;22.30;93.20;;;;;;4994392;28;20018;-83
2021/08/22 11:54:18;;;;;;;13.68;11.88;;;22.60;93.30;;;;;;5001446;28;20022;-85
2021/08/22 11:56:44;;;;;;;12.88;11.45;;;22.90;92.60;;;;;;5011858;28;20429;-85
2021/08/22 11:59:27;;;;;;;13.48;11.90;;;22.90;91.70;;;;;;5011018;28;20038;-85
2021/08/22 12:02:19;;;;;;;12.55;11.25;;;23.00;91.60;;;;;;5011083;28;20129;-85
2021/08/22 12:05:08;;;;;;;12.68;11.15;;;23.10;92.00;;;;;;5013189;28;20037;-85
2021/08/22 12:07:34;;;;;;;13.05;11.65;;;23.20;91.40;;;;;;5004631;28;20029;-85
2021/08/22 12:09:59;;;;;;;11.15;9.90;;;23.20;91.50;;;;;;5010923;28;20026;-86
2021/08/22 12:12:25;;;;;;;12.30;10.88;;;23.20;91.20;;;;;;5012577;28;20451;-85
2021/08/22 12:14:50;;;;;;;11.27;10.10;;;23.20;91.30;;;;;;5015380;28;20104;-84
2021/08/22 12:17:23;;;;;;;11.50;9.98;;;23.20;91.30;;;;;;5016837;28;20080;-85
2021/08/22 12:19:49;;;;;;;12.70;9.85;;;23.30;91.10;;;;;;5009585;28;20042;-85
2021/08/22 12:22:14;;;;;;;11.27;10.15;;;23.10;91.10;;;;;;5015800;28;20439;-85
2021/08/22 12:24:47;;;;;;;11.32;9.30;;;23.00;90.80;;;;;;5016805;28;20545;-84
2021/08/22 12:27:26;;;;;;;9.98;8.00;;;23.00;90.80;;;;;;5006141;28;20480;-85
2021/08/22 12:30:08;;;;;;;9.02;8.13;;;23.00;90.90;;;;;;5017606;28;20022;-84
2021/08/22 12:32:36;;;;;;;11.10;8.07;;;23.40;90.60;;;;;;5013996;28;20113;-85
2021/08/22 12:35:07;;;;;;;10.40;7.82;;;23.60;90.10;;;;;;5023403;28;20033;-85
2021/08/22 12:37:33;;;;;;;9.50;7.68;;;23.90;89.80;;;;;;5015758;28;20482;-85
2021/08/22 12:40:05;;;;;;;9.10;8.15;;;24.00;88.80;;;;;;5015306;28;20038;-84